Kathy C — 2CTI7 — position and weather

sailwx.info

Track history (hours):
 
Tides and Currents Weather Stations Pressure Air Temp Water Temp Dewpoint Dewpoint Depression Visibility Wind Speed Wind Dir Waves Ship Positions

Kathy C

Last reported at 2015-Jul-29 23:28 UTC. Time now 2015-Jul-30 00:04 UTC.
Position N 28°09' W 015°25'.

Length 106 m; draft 5.4 m.

Type: Cargo ship. MMSI: 235075591.

Date/timePositionNaut miles runAvg speedWind from/ knotsBaromVisibWave heightAir tempDewpointWater temp
2015-Jul-29 23:28N 28°09' W 015°25'0 0.0
2015-Jul-29 22:31N 28°09' W 015°25'0 0.0
2015-Jul-29 13:10N 28°09' W 015°25'0 0.0
2015-Jul-29 12:25N 28°09' W 015°25'0 0.0
2015-Jul-29 11:28N 28°09' W 015°25'0 0.0
2015-Jul-29 10:28N 28°09' W 015°25'0 0.0
2015-Jul-29 08:31N 28°09' W 015°25'0 0.0
2015-Jul-29 07:31N 28°09' W 015°25'0 0.0
2015-Jul-29 06:31N 28°09' W 015°25'0 0.0
2015-Jul-29 05:31N 28°09' W 015°25'0 0.0
2015-Jul-29 04:31N 28°09' W 015°25'0 0.0
2015-Jul-29 03:31N 28°09' W 015°25'0 0.0
2015-Jul-29 02:31N 28°09' W 015°25'0 0.0
2015-Jul-29 01:22N 28°09' W 015°25'0 0.0
2015-Jul-29 00:25N 28°09' W 015°25'0 0.0
2015-Jul-28 23:25N 28°09' W 015°25'0 0.0
2015-Jul-28 22:25N 28°09' W 015°25'0 0.0
2015-Jul-28 21:28N 28°09' W 015°25'0 0.0
2015-Jul-28 20:25N 28°09' W 015°25'0 0.0
2015-Jul-28 19:28N 28°09' W 015°25'0 0.0
2015-Jul-28 18:31N 28°09' W 015°25'2 2.5
2015-Jul-28 17:33N 28°08' W 015°23'9 9.4
2015-Jul-28 16:34N 28°14' W 015°30'1110.9
2015-Jul-28 15:34N 28°16' W 015°43'1110.6
2015-Jul-28 14:33N 28°17' W 015°55'1110.9
2015-Jul-28 13:33N 28°22' W 016°05'10 9.8
2015-Jul-28 12:33N 28°29' W 016°13'0 0.0
2015-Jul-28 11:22N 28°29' W 016°13'0 0.0
2015-Jul-28 10:25N 28°29' W 016°13'0 0.0
2015-Jul-28 09:28N 28°29' W 016°13'0 0.0
2015-Jul-28 08:28N 28°29' W 016°13'0 0.0
2015-Jul-28 07:31N 28°29' W 016°13'0 0.0
2015-Jul-28 06:31N 28°29' W 016°13'0 0.0
2015-Jul-28 05:31N 28°29' W 016°13'0 0.0
2015-Jul-28 04:31N 28°29' W 016°13'0 0.0
2015-Jul-28 03:16N 28°29' W 016°13'0 0.0
2015-Jul-28 01:31N 28°29' W 016°13'0 0.0
2015-Jul-27 22:10N 28°29' W 016°13'0 0.0
2015-Jul-27 16:25N 28°29' W 016°13'259 5.3
2015-Jul-25 15:32N 32°13' W 013°42'40311.5
2015-Jul-24 04:29N 38°07' W 009°45'1211.8
2015-Jul-24 03:29N 38°17' W 009°37'1111.3
2015-Jul-24 02:33N 38°27' W 009°31'1110.9
2015-Jul-24 01:33N 38°36' W 009°24'1110.9
2015-Jul-24 00:33N 38°41' W 009°12'0 0.4
2015-Jul-23 23:31N 38°41' W 009°11'0 0.0
2015-Jul-23 22:28N 38°41' W 009°11'0 0.0
2015-Jul-23 21:28N 38°41' W 009°11'0 0.0
2015-Jul-23 20:31N 38°41' W 009°11'0 0.0
2015-Jul-23 19:31N 38°41' W 009°11'4 4.7
2015-Jul-23 18:33N 38°41' W 009°17'1110.5
2015-Jul-23 17:33N 38°35' W 009°28'1111.0
2015-Jul-23 16:33N 38°35' W 009°42'1110.6
2015-Jul-23 15:33N 38°35' W 009°56'9 9.1
2015-Jul-23 14:34N 38°41' W 010°05'1211.6
2015-Jul-23 13:34N 38°52' W 010°05'1211.7
2015-Jul-23 12:33N 39°04' W 010°06'1211.8
2015-Jul-23 11:32N 39°16' W 010°06'2511.3
2015-Jul-23 09:19N 39°41' W 010°06'3211.2
2015-Jul-23 06:28N 40°13' W 010°06'1411.1
2015-Jul-23 05:14N 40°27' W 010°07'  
Track history (hours):
 
Tides and Currents Weather Stations Pressure Air Temp Water Temp Dewpoint Dewpoint Depression Visibility Wind Speed Wind Dir Waves Ship Positions

Kathy C

Last reported at 2015-Jul-29 23:28 UTC. Time now 2015-Jul-30 00:04 UTC.
Position N 28°09' W 015°25'.

Length 106 m; draft 5.4 m.

Type: Cargo ship. MMSI: 235075591.

Date/timePositionNaut miles runAvg speedWind from/ knotsBaromVisibWave heightAir tempDewpointWater temp
2015-Jul-29 23:28N 28°09' W 015°25'0 0.0
2015-Jul-29 22:31N 28°09' W 015°25'0 0.0
2015-Jul-29 13:10N 28°09' W 015°25'0 0.0
2015-Jul-29 12:25N 28°09' W 015°25'0 0.0
2015-Jul-29 11:28N 28°09' W 015°25'0 0.0
2015-Jul-29 10:28N 28°09' W 015°25'0 0.0
2015-Jul-29 08:31N 28°09' W 015°25'0 0.0
2015-Jul-29 07:31N 28°09' W 015°25'0 0.0
2015-Jul-29 06:31N 28°09' W 015°25'0 0.0
2015-Jul-29 05:31N 28°09' W 015°25'0 0.0
2015-Jul-29 04:31N 28°09' W 015°25'0 0.0
2015-Jul-29 03:31N 28°09' W 015°25'0 0.0
2015-Jul-29 02:31N 28°09' W 015°25'0 0.0
2015-Jul-29 01:22N 28°09' W 015°25'0 0.0
2015-Jul-29 00:25N 28°09' W 015°25'0 0.0
2015-Jul-28 23:25N 28°09' W 015°25'0 0.0
2015-Jul-28 22:25N 28°09' W 015°25'0 0.0
2015-Jul-28 21:28N 28°09' W 015°25'0 0.0
2015-Jul-28 20:25N 28°09' W 015°25'0 0.0
2015-Jul-28 19:28N 28°09' W 015°25'0 0.0
2015-Jul-28 18:31N 28°09' W 015°25'2 2.5
2015-Jul-28 17:33N 28°08' W 015°23'9 9.4
2015-Jul-28 16:34N 28°14' W 015°30'1110.9
2015-Jul-28 15:34N 28°16' W 015°43'1110.6
2015-Jul-28 14:33N 28°17' W 015°55'1110.9
2015-Jul-28 13:33N 28°22' W 016°05'10 9.8
2015-Jul-28 12:33N 28°29' W 016°13'0 0.0
2015-Jul-28 11:22N 28°29' W 016°13'0 0.0
2015-Jul-28 10:25N 28°29' W 016°13'0 0.0
2015-Jul-28 09:28N 28°29' W 016°13'0 0.0
2015-Jul-28 08:28N 28°29' W 016°13'0 0.0
2015-Jul-28 07:31N 28°29' W 016°13'0 0.0
2015-Jul-28 06:31N 28°29' W 016°13'0 0.0
2015-Jul-28 05:31N 28°29' W 016°13'0 0.0
2015-Jul-28 04:31N 28°29' W 016°13'0 0.0
2015-Jul-28 03:16N 28°29' W 016°13'0 0.0
2015-Jul-28 01:31N 28°29' W 016°13'0 0.0
2015-Jul-27 22:10N 28°29' W 016°13'0 0.0
2015-Jul-27 16:25N 28°29' W 016°13'259 5.3
2015-Jul-25 15:32N 32°13' W 013°42'40311.5
2015-Jul-24 04:29N 38°07' W 009°45'1211.8
2015-Jul-24 03:29N 38°17' W 009°37'1111.3
2015-Jul-24 02:33N 38°27' W 009°31'1110.9
2015-Jul-24 01:33N 38°36' W 009°24'1110.9
2015-Jul-24 00:33N 38°41' W 009°12'0 0.4
2015-Jul-23 23:31N 38°41' W 009°11'0 0.0
2015-Jul-23 22:28N 38°41' W 009°11'0 0.0
2015-Jul-23 21:28N 38°41' W 009°11'0 0.0
2015-Jul-23 20:31N 38°41' W 009°11'0 0.0
2015-Jul-23 19:31N 38°41' W 009°11'4 4.7
2015-Jul-23 18:33N 38°41' W 009°17'1110.5
2015-Jul-23 17:33N 38°35' W 009°28'1111.0
2015-Jul-23 16:33N 38°35' W 009°42'1110.6
2015-Jul-23 15:33N 38°35' W 009°56'9 9.1
2015-Jul-23 14:34N 38°41' W 010°05'1211.6
2015-Jul-23 13:34N 38°52' W 010°05'1211.7
2015-Jul-23 12:33N 39°04' W 010°06'1211.8
2015-Jul-23 11:32N 39°16' W 010°06'2511.3
2015-Jul-23 09:19N 39°41' W 010°06'3211.2
2015-Jul-23 06:28N 40°13' W 010°06'1411.1
2015-Jul-23 05:14N 40°27' W 010°07'  

Dump ship's entire track history